Latest Coastal Weather Observations for Stenhouse Bay

IDS60701

Issued at 8:01 am CDT Sunday 14 February 2016 (issued every 10 minutes, with the page automatically refreshed every 10 minutes)

About coastal observations | Map of coastal stations | Coastal observations for SA | Marine services | Other Formats
Station Details ID: 022049 Name: STENHOUSE BAY Lat: -35.28 Lon: 136.94 Height: 42.0 m
Data from the previous 72 hours. | See also: Recent months at Stenhouse Bay
Date/Time
CDT
Temp

°C
Wind Pressure Rain
since 9am
mm
Weather Cloud Vis
km
Sea
Height
m
Swell
Dir
 
Speed
knots
Gust
knots
hPa Trend Height
m
Period
s
Dir
14/08:00am 18.0 SW 11 14 1015.7 - 0.0 - - - - - - -
14/07:30am 17.7 SW 10 13 1015.5 - 0.0 - - - - - - -
14/07:00am 17.3 SW 11 14 1015.2 - 0.0 - - - - - - -
14/06:30am 17.3 SW 11 15 1014.7 - 0.0 - - - - - - -
14/06:00am 17.2 SW 9 14 1014.4 - 0.0 - - - - - - -
14/05:30am 17.3 SW 10 15 1014.1 - 0.0 - - - - - - -
14/05:00am 17.5 SW 11 16 1014.0 - 0.0 - - - - - - -
14/04:30am 17.7 SW 11 15 1013.5 - 0.0 - - - - - - -
14/04:00am 18.1 SW 10 14 1013.5 - 0.0 - - - - - - -
14/03:30am 17.8 SW 8 12 1013.6 - 0.0 - - - - - - -
14/03:00am 17.6 SW 9 13 1013.7 - 0.0 - - - - - - -
14/02:30am 17.7 SW 9 13 1013.8 - 0.0 - - - - - - -
14/02:00am 17.9 SW 7 12 1014.1 - 0.0 - - - - - - -
14/01:30am 17.9 SW 9 13 1014.3 - 0.0 - - - - - - -
14/01:00am 18.0 SW 10 15 1014.5 - 0.0 - - - - - - -
14/12:30am 17.9 SW 9 13 1014.6 - 0.0 - - - - - - -
14/12:00am 18.1 SW 10 13 1014.7 - 0.0 - - - - - - -
 
Date/Time
CDT
Temp

°C
Wind Pressure Rain
since 9am
mm
Weather Cloud Vis
km
Sea
Height
m
Swell
Dir
 
Speed
knots
Gust
knots
hPa Trend Height
m
Period
s
Dir
13/11:30pm 18.0 SW 7 12 1014.9 - 0.0 - - - - - - -
13/11:00pm 18.2 SW 7 11 1015.1 - 0.0 - - - - - - -
13/10:30pm 18.3 SW 8 12 1015.3 - 0.0 - - - - - - -
13/10:00pm 18.3 SW 8 12 1015.1 - 0.0 - - - - - - -
13/09:30pm 18.4 SW 8 14 1014.8 - 0.0 - - - - - - -
13/09:00pm 18.5 SW 10 16 1014.4 - 0.0 - - - - - - -
13/08:30pm 18.7 SW 11 17 1014.1 - 0.0 - - - - - - -
13/08:00pm 19.0 SW 12 16 1013.9 - 0.0 - - - - - - -
13/07:30pm 19.5 SW 12 17 1013.5 - 0.0 - - - - - - -
13/07:00pm 19.7 SW 15 19 1013.1 - 0.0 - - - - - - -
13/06:30pm 19.9 SW 14 18 1012.8 - 0.0 - - - - - - -
13/06:00pm 20.5 WSW 13 18 1012.8 - 0.0 - - - - - - -
13/05:30pm 22.0 SW 11 15 1012.9 - 0.0 - - - - - - -
13/05:00pm 21.7 SW 10 14 1012.8 - 0.0 - - - - - - -
13/04:30pm 21.9 SW 12 16 1012.9 - 0.0 - - - - - - -
13/04:00pm 21.4 SW 13 17 1013.0 - 0.0 - - - - - - -
13/03:30pm 20.6 WSW 14 18 1012.9 - 0.0 - - - - - - -
13/03:00pm 20.4 SW 13 17 1012.9 - 0.0 - - - - - - -
13/02:30pm 20.3 WSW 12 16 1013.0 - 0.0 - - - - - - -
13/02:00pm 20.5 SW 9 12 1012.6 - 0.0 - - - - - - -
13/01:30pm 20.9 SW 10 15 1012.8 - 0.0 - - - - - - -
13/01:00pm 21.2 SW 10 14 1013.1 - 0.0 - - - - - - -
13/12:30pm 21.7 SW 8 11 1012.9 - 0.0 - - - - - - -
13/12:00pm 22.2 SW 7 10 1013.0 - 0.0 - - - - - - -
13/11:30am 21.5 SW 7 10 1013.0 - 0.0 - - - - - - -
13/11:00am 21.0 SW 7 9 1012.9 - 0.0 - - - - - - -
13/10:30am 20.9 SW 8 10 1012.9 - 0.0 - - - - - - -
13/10:00am 21.4 WSW 7 9 1012.8 - 0.0 - - - - - - -
13/09:30am 20.4 WSW 6 8 1012.6 - 0.0 - - - - - - -
13/09:00am 20.1 WSW 6 9 1012.4 - 0.0 - - - - - - -
13/08:30am 19.4 WSW 6 8 1012.0 - 0.0 - - - - - - -
13/08:00am 19.0 SW 7 10 1011.7 - 0.0 - - - - - - -
13/07:30am 18.3 W 5 6 1011.6 - 0.0 - - - - - - -
13/07:00am 17.7 W 5 6 1011.3 - 0.0 - - - - - - -
13/06:30am 17.3 W 6 7 1011.2 - 0.0 - - - - - - -
13/06:00am 17.2 W 7 9 1011.0 - 0.0 - - - - - - -
13/05:30am 17.3 WNW 7 8 1010.7 - 0.0 - - - - - - -
13/05:00am 17.2 WNW 7 9 1010.6 - 0.0 - - - - - - -
13/04:30am 16.9 WNW 7 8 1010.6 - 0.0 - - - - - - -
13/04:00am 16.8 WNW 7 9 1010.6 - 0.0 - - - - - - -
13/03:30am 16.7 WNW 7 8 1010.7 - 0.0 - - - - - - -
13/03:00am 16.5 WNW 7 7 1010.8 - 0.0 - - - - - - -
13/02:30am 16.3 WNW 5 6 1011.1 - 0.0 - - - - - - -
13/02:00am 16.3 WNW 5 6 1011.6 - 0.0 - - - - - - -
13/01:30am 16.1 NW 3 5 1011.7 - 0.0 - - - - - - -
13/01:00am 16.5 NW 3 4 1011.8 - 0.0 - - - - - - -
13/12:30am 17.3 WSW 6 7 1012.3 - 0.0 - - - - - - -
13/12:00am 17.4 W 2 2 1011.8 - 0.0 - - - - - - -
 
Date/Time
CDT
Temp

°C
Wind Pressure Rain
since 9am
mm
Weather Cloud Vis
km
Sea
Height
m
Swell
Dir
 
Speed
knots
Gust
knots
hPa Trend Height
m
Period
s
Dir
12/11:30pm 17.3 WSW 4 5 1012.0 - 0.0 - - - - - - -
12/11:00pm 17.3 WNW 2 3 1011.8 - 0.0 - - - - - - -
12/10:30pm 17.6 WSW 6 7 1012.1 - 0.0 - - - - - - -
12/10:00pm 17.5 W 3 5 1012.1 - 0.0 - - - - - - -
12/09:30pm 17.9 WSW 4 5 1012.0 - 0.0 - - - - - - -
12/09:00pm 18.2 WSW 3 5 1011.8 - 0.0 - - - - - - -
12/08:30pm 19.1 WSW 7 8 1011.9 - 0.0 - - - - - - -
12/08:00pm 21.4 WSW 5 6 1011.8 - 0.0 - - - - - - -
12/07:30pm 23.3 WSW 5 6 1011.8 - 0.0 - - - - - - -
12/07:00pm 22.0 SSW 6 7 1011.7 - 0.0 - - - - - - -
12/06:30pm 22.1 SSW 5 6 1012.0 - 0.0 - - - - - - -
12/06:00pm 22.7 SW 4 6 1012.2 - 0.0 - - - - - - -
12/05:30pm 21.9 SW 9 11 1012.3 - 0.0 - - - - - - -
12/05:00pm 22.0 SW 12 15 1012.6 - 0.0 - - - - - - -
12/04:30pm 22.0 SW 15 19 1012.9 - 0.0 - - - - - - -
12/04:00pm 22.8 SW 16 19 1013.1 - 0.0 - - - - - - -
12/03:30pm 22.7 SW 13 16 1013.2 - 0.0 - - - - - - -
12/03:00pm 23.8 SW 8 12 1013.3 - 0.0 - - - - - - -
12/02:30pm 23.3 S 6 8 1013.5 - 0.0 - - - - - - -
12/02:00pm 22.3 SE 5 7 1013.6 - 0.0 - - - - - - -
12/01:30pm 22.0 ESE 5 7 1013.7 - 0.0 - - - - - - -
12/01:00pm 21.7 SE 5 6 1014.1 - 0.0 - - - - - - -
12/12:30pm 22.0 ESE 5 7 1014.4 - 0.0 - - - - - - -
12/12:00pm 21.8 ESE 6 7 1014.9 - 0.0 - - - - - - -
12/11:30am 21.9 ESE 6 8 1015.0 - 0.0 - - - - - - -
12/11:00am 20.6 ESE 6 8 1015.5 - 0.0 - - - - - - -
12/10:30am 20.3 SE 5 8 1015.9 - 0.0 - - - - - - -
12/10:00am 20.1 ESE 6 9 1016.0 - 0.0 - - - - - - -
12/09:30am 20.5 ESE 8 11 1015.9 - 0.0 - - - - - - -
12/09:00am 19.7 ESE 10 12 1016.1 - 0.0 - - - - - - -
12/08:30am 18.9 SE 10 13 1016.0 - 0.0 - - - - - - -
12/08:00am 18.8 SE 12 16 1015.9 - 0.0 - - - - - - -
12/07:30am 18.0 SE 13 17 1015.6 - 0.0 - - - - - - -
12/07:00am 17.5 SE 14 19 1015.4 - 0.0 - - - - - - -
12/06:30am 17.5 SE 14 17 1015.2 - 0.0 - - - - - - -
12/06:00am 17.5 SE 14 19 1015.1 - 0.0 - - - - - - -
12/05:30am 17.6 SE 15 19 1014.9 - 0.0 - - - - - - -
12/05:00am 17.4 SE 15 19 1015.1 - 0.0 - - - - - - -
12/04:30am 17.7 SE 13 17 1015.1 - 0.0 - - - - - - -
12/04:00am 17.7 SE 14 18 1015.2 - 0.0 - - - - - - -
12/03:30am 17.8 SE 15 19 1015.3 - 0.0 - - - - - - -
12/03:00am 17.8 SE 15 18 1015.6 - 0.0 - - - - - - -
12/02:30am 18.0 SE 13 18 1015.7 - 0.0 - - - - - - -
12/02:00am 17.8 SE 11 15 1016.0 - 0.0 - - - - - - -
12/01:30am 17.7 SE 10 14 1016.2 - 0.0 - - - - - - -
12/01:00am 17.8 SSE 11 15 1016.5 - 0.0 - - - - - - -
12/12:30am 17.9 SSE 13 18 1016.6 - 0.0 - - - - - - -
12/12:00am 18.3 SSE 14 18 1016.9 - 0.0 - - - - - - -
 
Date/Time
CDT
Temp

°C
Wind Pressure Rain
since 9am
mm
Weather Cloud Vis
km
Sea
Height
m
Swell
Dir
 
Speed
knots
Gust
knots
hPa Trend Height
m
Period
s
Dir
11/11:30pm 18.5 SSE 12 17 1017.0 - 0.0 - - - - - - -
11/11:00pm 18.5 SE 11 17 1017.3 - 0.0 - - - - - - -
11/10:30pm 18.8 SE 12 17 1017.4 - 0.0 - - - - - - -
11/10:00pm 18.8 SE 13 18 1017.0 - 0.0 - - - - - - -
11/09:30pm 19.1 SSE 16 21 1017.0 - 0.0 - - - - - - -
11/09:00pm 19.5 SSE 20 24 1016.9 - 0.0 - - - - - - -
11/08:30pm 19.8 SSE 19 22 1016.4 - 0.0 - - - - - - -
11/08:00pm 20.6 SSE 17 21 1016.3 - 0.0 - - - - - - -
11/07:30pm 21.2 SSE 14 19 1015.8 - 0.0 - - - - - - -
11/07:00pm 22.0 SE 12 15 1015.5 - 0.0 - - - - - - -
11/06:30pm 21.8 S 6 7 1015.5 - 0.0 - - - - - - -
11/06:00pm 22.1 S 7 9 1015.5 - 0.0 - - - - - - -
11/05:30pm 23.0 SSE 10 14 1015.3 - 0.0 - - - - - - -
11/05:00pm 24.3 ESE 10 13 1015.2 - 0.0 - - - - - - -
11/04:30pm 24.7 ESE 11 15 1015.2 - 0.0 - - - - - - -
11/04:00pm 24.8 ESE 10 14 1015.3 - 0.0 - - - - - - -
11/03:30pm 24.5 ESE 10 12 1015.5 - 0.0 - - - - - - -
11/03:00pm 24.3 ESE 10 13 1015.8 - 0.0 - - - - - - -
11/02:30pm 24.2 ESE 11 13 1016.0 - 0.0 - - - - - - -
11/02:00pm 24.4 ESE 11 14 1016.4 - 0.0 - - - - - - -
11/01:30pm 23.9 ESE 11 14 1016.7 - 0.0 - - - - - - -
11/01:00pm 23.3 ESE 12 17 1016.6 - 0.0 - - - - - - -
11/12:30pm 22.6 ESE 13 16 1016.7 - 0.0 - - - - - - -
11/12:00pm 22.7 ESE 15 18 1016.8 - 0.0 - - - - - - -
11/11:30am 22.7 ESE 14 20 1016.9 - 0.0 - - - - - - -
11/11:00am 22.1 ESE 15 19 1016.9 - 0.0 - - - - - - -
11/10:30am 21.7 ESE 15 20 1016.9 - 0.0 - - - - - - -
11/10:00am 21.1 ESE 16 21 1017.0 - 0.0 - - - - - - -
11/09:30am 20.1 SE 16 21 1017.4 - 0.0 - - - - - - -
11/09:00am 19.4 SE 17 22 1017.4 - 0.0 - - - - - - -
11/08:30am 19.0 SE 16 20 1017.2 - 0.0 - - - - - - -

Other Formats:

Comma delimited format used in spreadsheet applications
http://www.bom.gov.au/fwo/IDS60701/IDS60701.95806.axf

JavaScript Object Notation format (JSON) in row-major order
http://www.bom.gov.au/fwo/IDS60701/IDS60701.95806.json